Time;durP1;ratioP1;P1;durP2;ratioP2;P2;SDS_P1;SDS_P2;PMS_P1;PMS_P2;Temp;Humidity;BMP_temperature;BMP_pressure;BME280_temperature;BME280_humidity;BME280_pressure;Samples;Min_cycle;Max_cycle;Signal;HPM_P1;HPM_P2
2023/03/19 00:02:11;;;;;;;11.10;4.70;;;;;;;;;;107113;1274;24221;-74
2023/03/19 00:04:42;;;;;;;12.50;5.20;;;;;;;;;;107110;1274;22996;-74
2023/03/19 00:07:09;;;;;;;12.80;4.90;;;;;;;;;;106896;1259;24368;-77
2023/03/19 00:09:38;;;;;;;11.90;5.70;;;;;;;;;;107021;1275;24341;-81
2023/03/19 00:12:05;;;;;;;15.20;5.20;;;;;;;;;;107051;1275;25318;-74
2023/03/19 00:14:42;;;;;;;14.80;4.80;;;;;;;;;;107067;1274;22570;-77
2023/03/19 00:17:10;;;;;;;12.70;5.40;;;;;;;;;;107094;1257;24218;-74
2023/03/19 00:19:37;;;;;;;10.80;5.30;;;;;;;;;;107156;1274;25526;-78
2023/03/19 00:22:06;;;;;;;12.40;5.30;;;;;;;;;;107117;1274;22491;-80
2023/03/19 00:24:33;;;;;;;10.00;4.30;;;;;;;;;;106932;1274;22547;-76
2023/03/19 00:27:02;;;;;;;10.50;4.60;;;;;;;;;;107095;1274;24212;-74
2023/03/19 00:29:31;;;;;;;12.70;5.20;;;;;;;;;;106919;1267;25325;-75
2023/03/19 00:32:02;;;;;;;11.70;5.30;;;;;;;;;;107170;1274;22512;-79
2023/03/19 00:34:29;;;;;;;12.60;5.10;;;;;;;;;;107174;1274;22524;-78
2023/03/19 00:37:03;;;;;;;17.00;5.70;;;;;;;;;;107109;1274;22656;-79
2023/03/19 00:39:33;;;;;;;14.50;5.60;;;;;;;;;;106929;1275;24056;-76
2023/03/19 00:42:20;;;;;;;14.00;5.50;;;;;;;;;;107119;1274;22520;-77
2023/03/19 00:44:50;;;;;;;12.50;4.80;;;;;;;;;;107165;1274;24243;-81
2023/03/19 00:47:23;;;;;;;13.00;4.80;;;;;;;;;;107088;1274;24224;-83
2023/03/19 00:49:53;;;;;;;12.50;5.10;;;;;;;;;;106949;1267;23855;-77
2023/03/19 00:52:20;;;;;;;12.80;5.00;;;;;;;;;;107094;1274;22617;-73
2023/03/19 00:54:47;;;;;;;14.70;5.10;;;;;;;;;;107126;1274;22956;-75
2023/03/19 00:57:23;;;;;;;11.60;4.60;;;;;;;;;;107100;1274;25220;-75
2023/03/19 00:59:50;;;;;;;10.40;4.20;;;;;;;;;;107151;1264;25395;-77
2023/03/19 01:02:17;;;;;;;12.70;4.70;;;;;;;;;;107114;1274;23901;-78
2023/03/19 01:04:52;;;;;;;12.40;4.60;;;;;;;;;;107079;1266;24292;-80
2023/03/19 01:07:32;;;;;;;10.70;4.40;;;;;;;;;;107090;1274;22638;-78
2023/03/19 01:10:01;;;;;;;12.10;4.50;;;;;;;;;;107089;1266;25319;-78
2023/03/19 01:12:29;;;;;;;11.30;4.90;;;;;;;;;;107165;1274;24355;-76
2023/03/19 01:14:59;;;;;;;12.40;4.70;;;;;;;;;;107126;1251;22546;-78
2023/03/19 01:17:36;;;;;;;10.90;4.40;;;;;;;;;;106938;1274;24221;-80
2023/03/19 01:20:12;;;;;;;10.30;4.10;;;;;;;;;;107149;1266;24224;-75
2023/03/19 01:22:47;;;;;;;11.00;4.70;;;;;;;;;;107114;1274;25315;-77
2023/03/19 01:25:16;;;;;;;12.00;4.70;;;;;;;;;;107147;1274;22570;-75
2023/03/19 01:27:56;;;;;;;11.20;4.70;;;;;;;;;;106930;1274;22529;-78
2023/03/19 01:30:25;;;;;;;12.50;5.20;;;;;;;;;;107015;1274;24251;-77
2023/03/19 01:33:11;;;;;;;14.00;4.70;;;;;;;;;;107018;1274;25489;-75
2023/03/19 01:36:07;;;;;;;15.30;5.10;;;;;;;;;;107006;1274;25322;-78
2023/03/19 01:39:06;;;;;;;;;;;;;;;;;;;;;
2023/03/19 01:41:42;;;;;;;12.90;4.60;;;;;;;;;;107127;1274;24246;-77
2023/03/19 01:44:31;;;;;;;15.70;4.90;;;;;;;;;;107182;1251;24218;-73
2023/03/19 01:47:28;;;;;;;11.60;4.90;;;;;;;;;;107113;1274;23898;-74
2023/03/19 01:50:21;;;;;;;11.30;4.60;;;;;;;;;;107053;1266;22573;-81
2023/03/19 01:52:49;;;;;;;11.00;4.80;;;;;;;;;;107125;1274;25318;-77
2023/03/19 01:55:47;;;;;;;9.90;4.40;;;;;;;;;;107040;1274;26510;-77
2023/03/19 01:58:29;;;;;;;15.20;5.00;;;;;;;;;;107052;1274;22636;-82
2023/03/19 02:01:36;;;;;;;12.90;4.80;;;;;;;;;;107090;1270;24182;-75
2023/03/19 02:04:06;;;;;;;11.30;4.60;;;;;;;;;;106977;1274;22740;-78
2023/03/19 02:06:55;;;;;;;11.00;4.60;;;;;;;;;;107091;1274;25446;-78
2023/03/19 02:09:23;;;;;;;11.20;4.50;;;;;;;;;;107140;1274;26917;-73
2023/03/19 02:11:53;;;;;;;12.00;4.70;;;;;;;;;;106892;1268;22537;-77
2023/03/19 02:14:30;;;;;;;10.30;4.20;;;;;;;;;;107065;1264;25322;-75
2023/03/19 02:17:15;;;;;;;;;;;;;;;;;;;;;
2023/03/19 02:19:48;;;;;;;14.30;5.50;;;;;;;;;;106969;1251;22510;-74
2023/03/19 02:22:29;;;;;;;14.20;5.40;;;;;;;;;;106835;1274;25281;-74
2023/03/19 02:25:10;;;;;;;14.60;5.10;;;;;;;;;;107052;1275;25381;-77
2023/03/19 02:27:40;;;;;;;12.60;4.80;;;;;;;;;;107149;1274;24187;-80
2023/03/19 02:35:33;;;;;;;11.20;5.10;;;;;;;;;;103878;1302;544879;-78
2023/03/19 02:38:02;;;;;;;12.50;5.30;;;;;;;;;;106400;1286;22581;-76
2023/03/19 02:40:30;;;;;;;12.00;5.10;;;;;;;;;;106383;1286;22649;-82
2023/03/19 02:43:02;;;;;;;13.60;5.50;;;;;;;;;;106374;1280;22659;-74
2023/03/19 02:45:38;;;;;;;14.20;6.00;;;;;;;;;;106328;1269;24279;-79
2023/03/19 02:48:08;;;;;;;13.20;5.60;;;;;;;;;;103029;1276;5091500;-79
2023/03/19 02:50:44;;;;;;;12.60;4.90;;;;;;;;;;106842;1277;22496;-78
2023/03/19 02:53:14;;;;;;;11.50;5.00;;;;;;;;;;106845;1277;25436;-74
2023/03/19 02:55:43;;;;;;;14.00;5.40;;;;;;;;;;106832;1260;23902;-76
2023/03/19 02:58:11;;;;;;;13.50;6.00;;;;;;;;;;106818;1278;22520;-77
2023/03/19 03:00:51;;;;;;;14.70;5.90;;;;;;;;;;106856;1277;22524;-79
2023/03/19 03:03:18;;;;;;;13.30;5.30;;;;;;;;;;106856;1278;24198;-81
2023/03/19 03:05:55;;;;;;;12.70;5.50;;;;;;;;;;106831;1257;22517;-76
2023/03/19 03:08:32;;;;;;;12.70;5.20;;;;;;;;;;106874;1278;22541;-77
2023/03/19 03:10:59;;;;;;;12.20;5.30;;;;;;;;;;106885;1277;22583;-80
2023/03/19 03:13:28;;;;;;;13.10;5.70;;;;;;;;;;106831;1277;24182;-81
2023/03/19 03:15:56;;;;;;;15.30;5.40;;;;;;;;;;106764;1277;25465;-79
2023/03/19 03:18:35;;;;;;;13.30;5.60;;;;;;;;;;106834;1277;22730;-76
2023/03/19 03:21:02;;;;;;;12.30;5.50;;;;;;;;;;106820;1277;24189;-81
2023/03/19 03:23:29;;;;;;;13.60;5.10;;;;;;;;;;106859;1277;22651;-80
2023/03/19 03:26:07;;;;;;;12.90;5.40;;;;;;;;;;106839;1269;24912;-78
2023/03/19 03:28:43;;;;;;;13.80;5.80;;;;;;;;;;106885;1254;25290;-76
2023/03/19 03:31:13;;;;;;;13.30;5.80;;;;;;;;;;106827;1277;22649;-80
2023/03/19 03:33:42;;;;;;;11.70;5.40;;;;;;;;;;106856;1277;22996;-81
2023/03/19 03:36:19;;;;;;;;;;;;;;;;;;;;;
2023/03/19 03:38:49;;;;;;;13.70;5.90;;;;;;;;;;106895;1277;25356;-78
2023/03/19 03:41:19;;;;;;;13.70;6.20;;;;;;;;;;106845;1278;22535;-80
2023/03/19 03:43:57;;;;;;;13.20;5.40;;;;;;;;;;106767;1277;24801;-81
2023/03/19 03:46:34;;;;;;;;;;;;;;;;;;;;;
2023/03/19 03:49:22;;;;;;;12.90;5.80;;;;;;;;;;106818;1277;25337;-74
2023/03/19 03:51:49;;;;;;;14.90;6.00;;;;;;;;;;106840;1277;25347;-74
2023/03/19 03:54:20;;;;;;;15.30;5.90;;;;;;;;;;106821;1278;25367;-78
2023/03/19 03:56:49;;;;;;;14.10;5.70;;;;;;;;;;106788;1261;22543;-79
2023/03/19 03:59:15;;;;;;;13.70;5.80;;;;;;;;;;106811;1276;25415;-81
2023/03/19 04:01:45;;;;;;;14.40;6.30;;;;;;;;;;106829;1278;22620;-77
2023/03/19 04:04:25;;;;;;;;;;;;;;;;;;;;;
2023/03/19 04:06:53;;;;;;;14.20;5.60;;;;;;;;;;106802;1277;22573;-77
2023/03/19 04:09:38;;;;;;;13.20;6.10;;;;;;;;;;106859;1278;22646;-78
2023/03/19 04:12:08;;;;;;;14.80;6.60;;;;;;;;;;106781;1278;24899;-78
2023/03/19 04:14:44;;;;;;;14.30;5.90;;;;;;;;;;106842;1277;25449;-78
2023/03/19 04:17:20;;;;;;;14.20;6.30;;;;;;;;;;106782;1260;23864;-76
2023/03/19 04:19:49;;;;;;;15.70;6.30;;;;;;;;;;106793;1277;25344;-79
2023/03/19 04:22:17;;;;;;;16.60;6.40;;;;;;;;;;106799;1278;23905;-78
2023/03/19 04:25:00;;;;;;;13.70;5.90;;;;;;;;;;106800;1278;25291;-77
2023/03/19 04:27:35;;;;;;;14.40;6.20;;;;;;;;;;106826;1260;22527;-81
2023/03/19 04:30:03;;;;;;;17.70;6.80;;;;;;;;;;106887;1277;24234;-74
2023/03/19 04:33:03;;;;;;;18.10;7.60;;;;;;;;;;106814;1278;24214;-77
2023/03/19 04:35:36;;;;;;;17.70;7.00;;;;;;;;;;106699;1279;23876;-74
2023/03/19 04:38:32;;;;;;;16.20;7.10;;;;;;;;;;106794;1262;22530;-81
2023/03/19 04:41:10;;;;;;;13.60;6.10;;;;;;;;;;106744;1279;25476;-79
2023/03/19 04:43:39;;;;;;;16.00;6.30;;;;;;;;;;106743;1279;24209;-81
2023/03/19 04:46:14;;;;;;;14.40;6.60;;;;;;;;;;106453;1279;25369;-77
2023/03/19 04:49:00;;;;;;;14.70;6.80;;;;;;;;;;106718;1263;22667;-77
2023/03/19 04:51:50;;;;;;;21.00;7.50;;;;;;;;;;106813;1278;25366;-78
2023/03/19 04:54:17;;;;;;;21.00;7.70;;;;;;;;;;106817;1277;22523;-76
2023/03/19 04:57:01;;;;;;;22.40;7.60;;;;;;;;;;106785;1277;22558;-74
2023/03/19 04:59:37;;;;;;;22.10;8.30;;;;;;;;;;106860;1259;24225;-75
2023/03/19 05:02:13;;;;;;;22.70;7.90;;;;;;;;;;106800;1272;23860;-77
2023/03/19 05:05:20;;;;;;;20.40;8.30;;;;;;;;;;106506;1278;22523;-82
2023/03/19 05:08:08;;;;;;;21.80;8.10;;;;;;;;;;106609;1259;26501;-80
2023/03/19 05:10:50;;;;;;;25.80;9.20;;;;;;;;;;106796;1278;22536;-77
2023/03/19 05:13:30;;;;;;;28.60;10.20;;;;;;;;;;106776;1278;24465;-81
2023/03/19 05:16:30;;;;;;;;;;;;;;;;;;;;;
2023/03/19 05:19:07;;;;;;;34.00;11.60;;;;;;;;;;106721;1260;24266;-79
2023/03/19 05:21:56;;;;;;;28.50;11.60;;;;;;;;;;106811;1278;25291;-78
2023/03/19 05:24:24;;;;;;;25.20;10.20;;;;;;;;;;106798;1278;24199;-76
2023/03/19 05:26:51;;;;;;;23.40;9.60;;;;;;;;;;106698;1278;25249;-76
2023/03/19 05:29:27;;;;;;;19.40;8.20;;;;;;;;;;106782;1260;25165;-78
2023/03/19 05:32:15;;;;;;;16.40;7.30;;;;;;;;;;106797;1278;22527;-78
2023/03/19 05:34:45;;;;;;;15.50;7.20;;;;;;;;;;106860;1275;25430;-75
2023/03/19 05:37:24;;;;;;;14.10;7.10;;;;;;;;;;106901;1276;22628;-81
2023/03/19 05:39:54;;;;;;;16.40;7.40;;;;;;;;;;106884;1257;22523;-77
2023/03/19 05:42:23;;;;;;;17.30;7.70;;;;;;;;;;106877;1276;25277;-78
2023/03/19 05:44:59;;;;;;;15.60;7.20;;;;;;;;;;106905;1276;24311;-76
2023/03/19 05:47:52;;;;;;;14.20;6.60;;;;;;;;;;106928;1272;22598;-75
2023/03/19 05:50:21;;;;;;;14.40;7.00;;;;;;;;;;106872;1276;22633;-81
2023/03/19 05:53:08;;;;;;;13.20;6.70;;;;;;;;;;106942;1276;22482;-81
2023/03/19 05:55:41;;;;;;;16.60;7.30;;;;;;;;;;106852;1276;25309;-78
2023/03/19 05:58:10;;;;;;;18.40;8.10;;;;;;;;;;106929;1276;22644;-75
2023/03/19 06:00:37;;;;;;;17.90;8.40;;;;;;;;;;106672;1260;22516;-74
2023/03/19 06:03:05;;;;;;;20.30;8.60;;;;;;;;;;106748;1276;22539;-74
2023/03/19 06:05:49;;;;;;;18.20;8.40;;;;;;;;;;106885;1276;25762;-79
2023/03/19 06:08:23;;;;;;;17.60;8.00;;;;;;;;;;106882;1276;25328;-74
2023/03/19 06:11:00;;;;;;;17.80;7.90;;;;;;;;;;106884;1257;22670;-76
2023/03/19 06:13:27;;;;;;;16.20;7.70;;;;;;;;;;106909;1276;23305;-74
2023/03/19 06:16:08;;;;;;;15.70;8.00;;;;;;;;;;106888;1276;25223;-78
2023/03/19 06:18:39;;;;;;;17.00;8.30;;;;;;;;;;106846;1277;22674;-74
2023/03/19 06:21:24;;;;;;;17.30;8.60;;;;;;;;;;106617;1262;22610;-78
2023/03/19 06:23:55;;;;;;;17.30;7.80;;;;;;;;;;106858;1277;25271;-74
2023/03/19 06:26:38;;;;;;;13.90;6.70;;;;;;;;;;106870;1272;22528;-81
2023/03/19 06:29:13;;;;;;;16.90;8.20;;;;;;;;;;106838;1254;22534;-75
2023/03/19 06:31:43;;;;;;;18.40;7.90;;;;;;;;;;106836;1277;22532;-82
2023/03/19 06:34:40;;;;;;;21.30;9.20;;;;;;;;;;106766;1277;25331;-74
2023/03/19 06:37:12;;;;;;;20.70;9.00;;;;;;;;;;106843;1277;25328;-78
2023/03/19 06:39:49;;;;;;;21.20;9.50;;;;;;;;;;106831;1277;22759;-74
2023/03/19 06:42:20;;;;;;;14.50;7.20;;;;;;;;;;106764;1277;24327;-80
2023/03/19 06:44:48;;;;;;;13.80;7.40;;;;;;;;;;106824;1277;24329;-74
2023/03/19 06:47:35;;;;;;;15.10;6.90;;;;;;;;;;106822;1277;25285;-78
2023/03/19 06:50:22;;;;;;;14.60;7.10;;;;;;;;;;106848;1264;22849;-75
2023/03/19 06:53:06;;;;;;;12.50;6.80;;;;;;;;;;106672;1277;24154;-75
2023/03/19 06:55:46;;;;;;;14.20;7.30;;;;;;;;;;106688;1272;24368;-75
2023/03/19 06:58:34;;;;;;;14.00;7.30;;;;;;;;;;106600;1277;22529;-74
2023/03/19 07:01:32;;;;;;;14.30;7.00;;;;;;;;;;106820;1257;24438;-74
2023/03/19 07:03:57;;;;;;;17.50;7.60;;;;;;;;;;106739;1277;22520;-74
2023/03/19 07:06:33;;;;;;;15.90;7.10;;;;;;;;;;106724;1277;22543;-78
2023/03/19 07:09:11;;;;;;;17.90;8.40;;;;;;;;;;106775;1277;24660;-81
2023/03/19 07:11:37;;;;;;;20.90;9.80;;;;;;;;;;106824;1268;25286;-78
2023/03/19 07:14:04;;;;;;;19.50;8.30;;;;;;;;;;106818;1277;22677;-74
2023/03/19 07:16:31;;;;;;;19.20;8.40;;;;;;;;;;106686;1277;24377;-75
2023/03/19 07:18:59;;;;;;;15.40;7.80;;;;;;;;;;106838;1277;22787;-80
2023/03/19 07:21:26;;;;;;;15.10;7.90;;;;;;;;;;106873;1257;24255;-81
2023/03/19 07:23:54;;;;;;;16.30;7.30;;;;;;;;;;106802;1277;24183;-76
2023/03/19 07:26:20;;;;;;;14.20;7.30;;;;;;;;;;106847;1277;22527;-75
2023/03/19 07:28:50;;;;;;;14.70;6.90;;;;;;;;;;106793;1277;22595;-78
2023/03/19 07:31:18;;;;;;;15.00;7.50;;;;;;;;;;106817;1277;25384;-75
2023/03/19 07:33:44;;;;;;;14.80;7.80;;;;;;;;;;106687;1277;25638;-75
2023/03/19 07:36:14;;;;;;;15.50;7.40;;;;;;;;;;106681;1277;23261;-76
2023/03/19 07:38:41;;;;;;;14.90;6.60;;;;;;;;;;106721;1277;22781;-79
2023/03/19 07:41:08;;;;;;;15.70;7.00;;;;;;;;;;106609;1260;22537;-75
2023/03/19 07:43:35;;;;;;;15.10;7.40;;;;;;;;;;106639;1277;23902;-76
2023/03/19 07:46:02;;;;;;;16.40;7.00;;;;;;;;;;106695;1277;25889;-81
2023/03/19 07:48:30;;;;;;;15.90;7.10;;;;;;;;;;106820;1277;23116;-76
2023/03/19 07:50:58;;;;;;;15.90;7.40;;;;;;;;;;106827;1254;25286;-78
2023/03/19 07:53:25;;;;;;;16.10;7.20;;;;;;;;;;106854;1277;22526;-73
2023/03/19 07:55:52;;;;;;;14.10;6.90;;;;;;;;;;106903;1277;22527;-79
2023/03/19 07:58:18;;;;;;;15.00;6.90;;;;;;;;;;106766;1277;25318;-77
2023/03/19 08:00:46;;;;;;;14.80;7.10;;;;;;;;;;106824;1277;22483;-76
2023/03/19 08:03:21;;;;;;;13.60;7.40;;;;;;;;;;106713;1262;22564;-75
2023/03/19 08:05:51;;;;;;;13.00;7.30;;;;;;;;;;106786;1277;22530;-78
2023/03/19 08:08:18;;;;;;;14.10;6.70;;;;;;;;;;106909;1277;25337;-75
2023/03/19 08:10:46;;;;;;;15.60;7.60;;;;;;;;;;106862;1262;22527;-80
2023/03/19 08:13:14;;;;;;;16.50;8.00;;;;;;;;;;106757;1277;24340;-74
2023/03/19 08:15:49;;;;;;;13.90;7.20;;;;;;;;;;106462;1276;24338;-76
2023/03/19 08:18:16;;;;;;;15.50;7.40;;;;;;;;;;106785;1277;23960;-74
2023/03/19 08:20:44;;;;;;;15.40;7.40;;;;;;;;;;106476;1277;22531;-77
2023/03/19 08:23:12;;;;;;;15.20;7.30;;;;;;;;;;106798;1260;22517;-79
2023/03/19 08:25:38;;;;;;;13.00;6.90;;;;;;;;;;106787;1277;23211;-77
2023/03/19 08:28:06;;;;;;;13.50;6.90;;;;;;;;;;106824;1277;22686;-76
2023/03/19 08:30:32;;;;;;;14.50;7.50;;;;;;;;;;106906;1257;22534;-73
2023/03/19 08:33:00;;;;;;;14.30;6.90;;;;;;;;;;106831;1259;24053;-73
2023/03/19 08:35:27;;;;;;;16.00;7.50;;;;;;;;;;106802;1277;24257;-76
2023/03/19 08:37:54;;;;;;;14.10;7.00;;;;;;;;;;106846;1277;22523;-79
2023/03/19 08:40:22;;;;;;;13.30;6.70;;;;;;;;;;106778;1277;22557;-72
2023/03/19 08:42:49;;;;;;;13.50;7.10;;;;;;;;;;106691;1258;25297;-72
2023/03/19 08:45:16;;;;;;;13.20;7.00;;;;;;;;;;106768;1277;25404;-74
2023/03/19 08:47:43;;;;;;;14.40;7.50;;;;;;;;;;106774;1277;24259;-75
2023/03/19 08:50:10;;;;;;;15.00;7.40;;;;;;;;;;106659;1277;22694;-73
2023/03/19 08:52:37;;;;;;;15.80;7.50;;;;;;;;;;106577;1256;22570;-73
2023/03/19 08:55:05;;;;;;;15.70;7.20;;;;;;;;;;106774;1272;22549;-77
2023/03/19 08:57:32;;;;;;;13.90;7.70;;;;;;;;;;106789;1272;23859;-75
2023/03/19 08:59:59;;;;;;;14.20;7.70;;;;;;;;;;106880;1273;22569;-75
2023/03/19 09:02:26;;;;;;;16.20;7.80;;;;;;;;;;106638;1275;24174;-73
2023/03/19 09:04:53;;;;;;;12.50;6.60;;;;;;;;;;106819;1277;24353;-73
2023/03/19 09:07:20;;;;;;;16.20;7.30;;;;;;;;;;106729;1277;24392;-73
2023/03/19 09:09:47;;;;;;;14.00;7.50;;;;;;;;;;106661;1277;22535;-75
2023/03/19 09:12:15;;;;;;;15.50;7.30;;;;;;;;;;106730;1254;23960;-74
2023/03/19 09:14:42;;;;;;;14.40;7.20;;;;;;;;;;106746;1277;24146;-74
2023/03/19 09:17:10;;;;;;;13.90;6.90;;;;;;;;;;106664;1275;25281;-73
2023/03/19 09:19:37;;;;;;;13.30;7.00;;;;;;;;;;106679;1277;22522;-77
2023/03/19 09:22:04;;;;;;;15.40;7.60;;;;;;;;;;106824;1277;24368;-81
2023/03/19 09:24:31;;;;;;;14.00;7.20;;;;;;;;;;106725;1259;25412;-73
2023/03/19 09:26:59;;;;;;;12.80;6.10;;;;;;;;;;106512;1277;23893;-74
2023/03/19 09:29:26;;;;;;;14.90;6.80;;;;;;;;;;106675;1277;24145;-78
2023/03/19 09:31:53;;;;;;;13.50;6.50;;;;;;;;;;106873;1269;22698;-76
2023/03/19 09:34:20;;;;;;;13.80;6.80;;;;;;;;;;106895;1259;24266;-74
2023/03/19 09:36:47;;;;;;;13.20;6.70;;;;;;;;;;106909;1269;25613;-75
2023/03/19 09:39:15;;;;;;;11.80;6.00;;;;;;;;;;106888;1272;26445;-73
2023/03/19 09:41:48;;;;;;;12.20;6.50;;;;;;;;;;106861;1273;24173;-73
2023/03/19 09:44:20;;;;;;;11.70;6.40;;;;;;;;;;106857;1259;22523;-75
2023/03/19 09:46:47;;;;;;;12.90;6.60;;;;;;;;;;106878;1276;24234;-77
2023/03/19 09:49:23;;;;;;;12.60;6.70;;;;;;;;;;106869;1276;24222;-73
2023/03/19 09:51:59;;;;;;;12.80;6.40;;;;;;;;;;106820;1276;25405;-73
2023/03/19 09:54:31;;;;;;;13.60;5.80;;;;;;;;;;106826;1276;22527;-74
2023/03/19 09:56:59;;;;;;;12.40;6.50;;;;;;;;;;106856;1276;22527;-78
2023/03/19 09:59:26;;;;;;;12.30;6.50;;;;;;;;;;106723;1276;25281;-73
2023/03/19 10:02:00;;;;;;;12.50;6.10;;;;;;;;;;106785;1276;24187;-75
2023/03/19 10:04:26;;;;;;;11.50;6.10;;;;;;;;;;106873;1260;24247;-77
2023/03/19 10:06:57;;;;;;;13.30;6.70;;;;;;;;;;106920;1276;23870;-74
2023/03/19 10:09:24;;;;;;;14.20;7.10;;;;;;;;;;106910;1277;22603;-75
2023/03/19 10:11:58;;;;;;;12.10;6.30;;;;;;;;;;106844;1273;23919;-77
2023/03/19 10:14:41;;;;;;;12.80;6.60;;;;;;;;;;106873;1256;22530;-80
2023/03/19 10:17:14;;;;;;;14.20;7.20;;;;;;;;;;106808;1277;23006;-82
2023/03/19 10:19:48;;;;;;;16.00;8.70;;;;;;;;;;106879;1277;25303;-76
2023/03/19 10:22:17;;;;;;;14.80;7.30;;;;;;;;;;106820;1277;22753;-80
2023/03/19 10:24:45;;;;;;;13.90;7.00;;;;;;;;;;106855;1259;25281;-79
2023/03/19 10:27:14;;;;;;;13.40;7.00;;;;;;;;;;106832;1277;25249;-80
2023/03/19 10:29:42;;;;;;;11.60;5.90;;;;;;;;;;106842;1277;22679;-76
2023/03/19 10:32:28;;;;;;;12.30;6.00;;;;;;;;;;106836;1277;22523;-78
2023/03/19 10:34:56;;;;;;;13.30;6.20;;;;;;;;;;106916;1258;22526;-80
2023/03/19 10:37:25;;;;;;;14.60;6.50;;;;;;;;;;106810;1277;24822;-79
2023/03/19 10:39:56;;;;;;;12.90;6.60;;;;;;;;;;106884;1269;22649;-76
2023/03/19 10:42:32;;;;;;;12.30;6.00;;;;;;;;;;106882;1276;22523;-75
2023/03/19 10:45:10;;;;;;;12.00;6.40;;;;;;;;;;107020;1257;22523;-77
2023/03/19 10:47:38;;;;;;;12.70;6.60;;;;;;;;;;106895;1276;22523;-79
2023/03/19 10:50:05;;;;;;;12.30;6.30;;;;;;;;;;106945;1270;22543;-75
2023/03/19 10:52:36;;;;;;;13.90;6.80;;;;;;;;;;106908;1276;22524;-75
2023/03/19 10:55:13;;;;;;;12.30;6.30;;;;;;;;;;106876;1260;21706;-77
2023/03/19 10:57:41;;;;;;;11.70;6.00;;;;;;;;;;106869;1277;22519;-78
2023/03/19 11:00:18;;;;;;;15.00;7.40;;;;;;;;;;106805;1277;22563;-80
2023/03/19 11:02:51;;;;;;;13.10;6.70;;;;;;;;;;107124;1271;22520;-77
2023/03/19 11:05:22;;;;;;;11.70;6.20;;;;;;;;;;107117;1274;24270;-79
2023/03/19 11:07:50;;;;;;;12.40;6.80;;;;;;;;;;107113;1275;25417;-78
2023/03/19 11:10:18;;;;;;;11.70;6.50;;;;;;;;;;107152;1272;22520;-77
2023/03/19 11:12:56;;;;;;;11.90;6.00;;;;;;;;;;107143;1266;25008;-74
2023/03/19 11:15:35;;;;;;;12.80;6.30;;;;;;;;;;107040;1257;25394;-78
2023/03/19 11:18:07;;;;;;;12.20;6.40;;;;;;;;;;106923;1275;24194;-80
2023/03/19 11:20:36;;;;;;;12.10;6.50;;;;;;;;;;107097;1275;24337;-73
2023/03/19 11:23:08;;;;;;;13.40;6.10;;;;;;;;;;106910;1275;25344;-78
2023/03/19 11:25:40;;;;;;;11.60;5.90;;;;;;;;;;107045;1257;22524;-80
2023/03/19 11:28:11;;;;;;;11.40;5.70;;;;;;;;;;107154;1274;25397;-73
2023/03/19 11:30:46;;;;;;;12.20;6.20;;;;;;;;;;107149;1275;24359;-75
2023/03/19 11:33:17;;;;;;;13.20;6.30;;;;;;;;;;106882;1274;22520;-79
2023/03/19 11:35:50;;;;;;;13.10;6.40;;;;;;;;;;106894;1270;22539;-74
2023/03/19 11:38:25;;;;;;;13.60;6.10;;;;;;;;;;107142;1275;22636;-78
2023/03/19 11:40:58;;;;;;;10.30;5.60;;;;;;;;;;107076;1275;22523;-79
2023/03/19 11:44:03;;;;;;;12.00;5.80;;;;;;;;;;107128;1275;25376;-75
2023/03/19 11:46:45;;;;;;;12.90;6.70;;;;;;;;;;106737;1260;24262;-77
2023/03/19 11:49:18;;;;;;;11.30;6.00;;;;;;;;;;106715;1280;22526;-80
2023/03/19 11:51:48;;;;;;;11.30;6.40;;;;;;;;;;106757;1280;22549;-74
2023/03/19 11:54:29;;;;;;;12.20;6.00;;;;;;;;;;106659;1280;22527;-75
2023/03/19 11:57:02;;;;;;;12.40;6.30;;;;;;;;;;106598;1280;25264;-73
2023/03/19 11:59:37;;;;;;;12.90;7.10;;;;;;;;;;106792;1280;22764;-78
2023/03/19 12:02:16;;;;;;;12.70;6.80;;;;;;;;;;106758;1280;22530;-78
2023/03/19 12:04:52;;;;;;;14.20;6.60;;;;;;;;;;110205;1279;22223;-74
2023/03/19 12:07:43;;;;;;;14.90;6.80;;;;;;;;;;110179;1263;22208;-74
2023/03/19 12:10:16;;;;;;;15.60;6.80;;;;;;;;;;110100;1280;22233;-74
2023/03/19 12:12:48;;;;;;;13.40;6.70;;;;;;;;;;110197;1279;22225;-75
2023/03/19 12:15:23;;;;;;;17.00;8.00;;;;;;;;;;110065;1280;22136;-75
2023/03/19 12:17:58;;;;;;;12.90;6.30;;;;;;;;;;110329;1262;22147;-75
2023/03/19 12:20:46;;;;;;;13.50;6.20;;;;;;;;;;110641;1263;22083;-74
2023/03/19 12:23:23;;;;;;;11.40;6.00;;;;;;;;;;110482;1276;22318;-74
2023/03/19 12:26:03;;;;;;;13.30;7.00;;;;;;;;;;110462;1276;22204;-74
2023/03/19 12:28:35;;;;;;;11.10;6.00;;;;;;;;;;110750;1267;22091;-77
2023/03/19 12:31:05;;;;;;;14.00;6.90;;;;;;;;;;110458;1276;22403;-75
2023/03/19 12:33:35;;;;;;;12.20;6.90;;;;;;;;;;110608;1275;21990;-74
2023/03/19 12:36:04;;;;;;;13.00;6.90;;;;;;;;;;110474;1276;22007;-74
2023/03/19 12:38:47;;;;;;;14.00;6.90;;;;;;;;;;110710;1259;22142;-75
2023/03/19 12:41:18;;;;;;;11.50;5.80;;;;;;;;;;110469;1276;22097;-74
2023/03/19 12:44:00;;;;;;;14.00;7.10;;;;;;;;;;110474;1276;22103;-74
2023/03/19 12:46:36;;;;;;;12.80;6.50;;;;;;;;;;110620;1276;22401;-74
2023/03/19 12:49:06;;;;;;;14.20;6.60;;;;;;;;;;110698;1259;23015;-74
2023/03/19 12:51:39;;;;;;;12.30;6.30;;;;;;;;;;110557;1276;22140;-74
2023/03/19 12:54:24;;;;;;;13.80;6.70;;;;;;;;;;110470;1276;23256;-74
2023/03/19 12:56:56;;;;;;;14.00;7.10;;;;;;;;;;110461;1253;23344;-74
2023/03/19 12:59:28;;;;;;;12.60;6.80;;;;;;;;;;110359;1276;22136;-74
2023/03/19 13:02:04;;;;;;;13.10;6.80;;;;;;;;;;110353;1276;22096;-74
2023/03/19 13:04:33;;;;;;;11.80;6.10;;;;;;;;;;110597;1276;22130;-74
2023/03/19 13:07:00;;;;;;;13.20;6.70;;;;;;;;;;110592;1276;22369;-74
2023/03/19 13:09:42;;;;;;;13.20;6.80;;;;;;;;;;110589;1253;22870;-74
2023/03/19 13:12:12;;;;;;;12.20;6.80;;;;;;;;;;110462;1276;22151;-76
2023/03/19 13:14:46;;;;;;;14.60;6.90;;;;;;;;;;110479;1276;22709;-74
2023/03/19 13:17:19;;;;;;;14.20;7.10;;;;;;;;;;110490;1264;23143;-74
2023/03/19 13:19:47;;;;;;;13.00;7.30;;;;;;;;;;110484;1259;22223;-74
2023/03/19 13:22:18;;;;;;;12.90;6.50;;;;;;;;;;110548;1276;22234;-76
2023/03/19 13:24:46;;;;;;;13.10;6.80;;;;;;;;;;110527;1276;22006;-73
2023/03/19 13:27:25;;;;;;;14.10;7.30;;;;;;;;;;110468;1276;22128;-73
2023/03/19 13:29:59;;;;;;;17.00;8.20;;;;;;;;;;110779;1259;22106;-73
2023/03/19 13:32:34;;;;;;;16.40;8.30;;;;;;;;;;110443;1277;22137;-73
2023/03/19 13:35:21;;;;;;;12.10;7.00;;;;;;;;;;110464;1277;22753;-73
2023/03/19 13:37:54;;;;;;;12.80;6.60;;;;;;;;;;110414;1277;22999;-74
2023/03/19 13:40:39;;;;;;;13.60;7.40;;;;;;;;;;110992;1265;22264;-73
2023/03/19 13:43:28;;;;;;;13.80;7.20;;;;;;;;;;110553;1276;22087;-74
2023/03/19 13:46:01;;;;;;;18.30;8.60;;;;;;;;;;110554;1272;22025;-74
2023/03/19 13:48:29;;;;;;;16.70;9.30;;;;;;;;;;110293;1253;22026;-74
2023/03/19 13:51:22;;;;;;;15.60;8.90;;;;;;;;;;110540;1276;22260;-74
2023/03/19 13:53:52;;;;;;;18.80;9.60;;;;;;;;;;110528;1276;22121;-77
2023/03/19 13:56:20;;;;;;;17.60;9.20;;;;;;;;;;110464;1276;23085;-75
2023/03/19 13:58:50;;;;;;;16.20;8.90;;;;;;;;;;110631;1258;22915;-75
2023/03/19 14:01:24;;;;;;;15.60;8.30;;;;;;;;;;110514;1276;22116;-74
2023/03/19 14:03:54;;;;;;;22.10;11.70;;;;;;;;;;110567;1276;22118;-75
2023/03/19 14:06:30;;;;;;;20.40;12.40;;;;;;;;;;110568;1276;22465;-75
2023/03/19 14:08:57;;;;;;;15.50;9.00;;;;;;;;;;110565;1253;22141;-74
2023/03/19 14:11:27;;;;;;;16.50;8.90;;;;;;;;;;110492;1276;22302;-75
2023/03/19 14:13:55;;;;;;;15.90;8.30;;;;;;;;;;110441;1276;22775;-74
2023/03/19 14:16:28;;;;;;;16.40;9.40;;;;;;;;;;110289;1278;22132;-75
2023/03/19 14:18:56;;;;;;;17.50;9.60;;;;;;;;;;110298;1255;22812;-75
2023/03/19 14:21:41;;;;;;;20.80;12.90;;;;;;;;;;110324;1278;22101;-74
2023/03/19 14:24:27;;;;;;;23.20;13.30;;;;;;;;;;110319;1278;22114;-74
2023/03/19 14:27:02;;;;;;;32.30;24.00;;;;;;;;;;110283;1278;22098;-76
2023/03/19 14:29:31;;;;;;;17.90;10.70;;;;;;;;;;110301;1257;22765;-75
2023/03/19 14:32:01;;;;;;;30.60;17.80;;;;;;;;;;110279;1278;22120;-75
2023/03/19 14:34:33;;;;;;;33.60;18.50;;;;;;;;;;110132;1278;22080;-75
2023/03/19 14:36:59;;;;;;;18.60;10.00;;;;;;;;;;110274;1278;22167;-76
2023/03/19 14:39:28;;;;;;;21.20;12.90;;;;;;;;;;110326;1256;22126;-75
2023/03/19 14:42:06;;;;;;;22.50;12.50;;;;;;;;;;110330;1278;22113;-76
2023/03/19 14:44:51;;;;;;;19.80;11.40;;;;;;;;;;110256;1278;22105;-76
2023/03/19 14:47:30;;;;;;;16.30;8.50;;;;;;;;;;110331;1278;22834;-75
2023/03/19 14:50:16;;;;;;;19.00;11.20;;;;;;;;;;108565;1256;2375714;-75
2023/03/19 14:52:45;;;;;;;15.50;8.70;;;;;;;;;;110330;1278;22588;-75
2023/03/19 14:55:13;;;;;;;17.20;9.50;;;;;;;;;;110295;1278;22124;-75
2023/03/19 14:57:39;;;;;;;17.20;10.10;;;;;;;;;;110290;1278;22120;-75
2023/03/19 15:00:11;;;;;;;16.80;9.70;;;;;;;;;;110272;1260;22417;-76
2023/03/19 15:02:40;;;;;;;22.10;11.10;;;;;;;;;;110253;1278;22148;-76
2023/03/19 15:05:07;;;;;;;23.90;11.40;;;;;;;;;;110285;1278;22119;-77